createdAt,value
2023-03-26T00:01:46.942Z,5.40
2023-03-26T00:06:50.420Z,5.40
2023-03-26T00:11:54.261Z,5.40
2023-03-26T00:16:58.960Z,5.60
2023-03-26T00:22:27.552Z,5.80
2023-03-26T00:27:58.684Z,5.90
2023-03-26T00:33:03.547Z,5.90
2023-03-26T00:38:07.255Z,5.80
2023-03-26T00:43:18.919Z,5.70
2023-03-26T00:48:46.627Z,5.70
2023-03-26T00:53:51.589Z,5.50
2023-03-26T00:58:54.992Z,5.30
2023-03-26T01:04:21.173Z,5.10
2023-03-26T01:09:33.094Z,5.00
2023-03-26T01:14:36.798Z,4.80
2023-03-26T01:19:53.222Z,5.00
2023-03-26T01:24:57.930Z,5.10
2023-03-26T01:30:11.780Z,5.20
2023-03-26T01:35:33.349Z,5.20
2023-03-26T01:40:43.276Z,5.10
2023-03-26T01:45:48.883Z,5.10
2023-03-26T01:50:56.406Z,5.00
2023-03-26T01:56:10.998Z,4.90
2023-03-26T02:01:24.679Z,4.90
2023-03-26T02:06:34.466Z,4.90
2023-03-26T02:11:41.817Z,4.90
2023-03-26T02:16:47.144Z,4.90
2023-03-26T02:21:52.170Z,4.90
2023-03-26T02:26:58.287Z,4.90
2023-03-26T02:32:04.889Z,5.00
2023-03-26T02:37:08.836Z,5.10
2023-03-26T02:42:13.512Z,5.10
2023-03-26T02:47:16.809Z,5.20
2023-03-26T02:52:20.174Z,5.20
2023-03-26T02:57:25.408Z,5.30
2023-03-26T03:02:29.455Z,5.30
2023-03-26T03:07:33.003Z,5.30
2023-03-26T03:12:37.913Z,5.30
2023-03-26T03:17:41.735Z,5.30
2023-03-26T03:22:45.106Z,5.30
2023-03-26T03:27:50.365Z,5.20
2023-03-26T03:32:53.793Z,5.20
2023-03-26T03:37:57.198Z,5.10
2023-03-26T03:43:01.902Z,5.20
2023-03-26T03:48:05.551Z,5.30
2023-03-26T03:53:10.803Z,5.30
2023-03-26T03:58:22.377Z,5.20
2023-03-26T04:03:33.962Z,5.10
2023-03-26T04:08:38.142Z,5.00
2023-03-26T04:13:43.021Z,5.00
2023-03-26T04:18:46.540Z,5.10
2023-03-26T04:23:49.965Z,5.10
2023-03-26T04:28:56.659Z,5.10
2023-03-26T04:34:13.615Z,5.00
2023-03-26T04:39:17.065Z,5.00
2023-03-26T04:44:22.682Z,5.00
2023-03-26T04:49:26.403Z,5.00
2023-03-26T04:54:29.852Z,5.00
2023-03-26T04:59:37.221Z,5.00
2023-03-26T05:04:40.994Z,5.20
2023-03-26T05:09:44.637Z,5.20
2023-03-26T05:14:49.218Z,5.20
2023-03-26T05:19:53.125Z,5.40
2023-03-26T05:24:56.401Z,5.50
2023-03-26T05:30:06.592Z,5.70
2023-03-26T05:35:10.714Z,5.80
2023-03-26T05:40:17.269Z,5.80
2023-03-26T05:45:22.413Z,5.90
2023-03-26T05:50:25.750Z,5.90
2023-03-26T05:55:28.996Z,6.00
2023-03-26T06:00:33.826Z,6.00
2023-03-26T06:05:38.139Z,6.10
2023-03-26T06:10:41.640Z,6.20
2023-03-26T06:15:48.407Z,6.30
2023-03-26T06:20:52.402Z,6.40
2023-03-26T06:25:56.360Z,6.40
2023-03-26T06:31:05.012Z,6.50
2023-03-26T06:36:09.168Z,6.60
2023-03-26T06:41:14.929Z,6.70
2023-03-26T06:46:21.338Z,6.80
2023-03-26T06:51:24.735Z,6.80
2023-03-26T06:56:28.050Z,6.90
2023-03-26T07:01:34.574Z,7.00
2023-03-26T07:06:37.934Z,7.00
2023-03-26T07:11:41.389Z,7.00
2023-03-26T07:16:46.341Z,7.00
2023-03-26T07:21:50.597Z,6.90
2023-03-26T07:27:02.264Z,7.00
2023-03-26T07:32:19.023Z,7.10
2023-03-26T07:37:40.429Z,7.10
2023-03-26T07:42:59.300Z,7.00
2023-03-26T07:48:09.552Z,7.10
2023-03-26T07:53:13.599Z,7.20
2023-03-26T07:58:30.511Z,7.30
2023-03-26T08:03:54.412Z,7.50
2023-03-26T08:09:04.100Z,7.70
2023-03-26T08:14:28.718Z,7.80
2023-03-26T08:19:46.762Z,7.70
2023-03-26T08:25:05.305Z,7.50
2023-03-26T08:30:16.118Z,7.30
2023-03-26T08:35:20.954Z,7.20
2023-03-26T08:40:50.335Z,7.20
2023-03-26T08:46:13.961Z,7.40
2023-03-26T08:52:07.775Z,7.60
2023-03-26T08:57:35.804Z,7.70
2023-03-26T09:03:23.123Z,7.70
2023-03-26T09:09:08.984Z,7.50
2023-03-26T09:14:45.189Z,7.50
2023-03-26T09:20:27.852Z,8.20
2023-03-26T09:26:02.815Z,9.00
2023-03-26T09:31:21.874Z,9.80
2023-03-26T09:36:52.219Z,9.90
2023-03-26T09:42:09.776Z,9.60
2023-03-26T09:47:40.017Z,9.80
2023-03-26T09:52:57.282Z,9.50
2023-03-26T09:58:40.903Z,9.30
2023-03-26T10:04:01.339Z,9.10
2023-03-26T10:09:22.387Z,9.10
2023-03-26T10:14:37.106Z,9.20
2023-03-26T10:19:54.038Z,8.70
2023-03-26T10:25:17.543Z,8.30
2023-03-26T10:30:52.789Z,8.20
2023-03-26T10:36:13.658Z,8.40
2023-03-26T10:41:24.852Z,10.40
2023-03-26T10:47:07.055Z,12.00
2023-03-26T10:52:16.264Z,12.10
2023-03-26T10:57:37.420Z,12.20
2023-03-26T11:02:48.854Z,12.00
2023-03-26T11:08:03.218Z,11.40
2023-03-26T11:13:16.513Z,11.40
2023-03-26T11:18:28.197Z,11.50
2023-03-26T11:23:40.121Z,10.80
2023-03-26T11:29:38.012Z,10.80
2023-03-26T11:34:47.100Z,11.90
2023-03-26T11:39:55.996Z,12.90
2023-03-26T11:45:05.275Z,13.00
2023-03-26T11:50:11.952Z,13.10
2023-03-26T11:55:17.987Z,12.90
2023-03-26T12:00:28.292Z,12.90
2023-03-26T12:05:36.761Z,13.00
2023-03-26T12:10:44.126Z,13.10
2023-03-26T12:15:47.649Z,13.10
2023-03-26T12:21:03.156Z,13.20
2023-03-26T12:26:15.633Z,13.30
2023-03-26T12:31:20.575Z,13.40
2023-03-26T12:36:29.324Z,13.60
2023-03-26T12:44:42.570Z,13.80
2023-03-26T12:47:57.670Z,14.20
2023-03-26T12:53:03.551Z,14.60
2023-03-26T12:58:43.688Z,14.40
2023-03-26T13:04:18.407Z,14.10
2023-03-26T13:09:39.541Z,14.70
2023-03-26T13:15:24.942Z,13.40
2023-03-26T13:20:49.059Z,13.70
2023-03-26T13:26:03.569Z,14.50
2023-03-26T13:31:17.085Z,14.70
2023-03-26T13:36:26.014Z,14.50
2023-03-26T13:41:39.994Z,14.90
2023-03-26T13:46:50.036Z,13.80
2023-03-26T13:51:58.934Z,13.30
2023-03-26T13:57:11.530Z,13.30
2023-03-26T14:02:23.745Z,13.00
2023-03-26T14:07:32.301Z,12.30
2023-03-26T14:12:57.269Z,12.60
2023-03-26T14:18:12.060Z,13.70
2023-03-26T14:23:51.805Z,14.30
2023-03-26T14:29:37.154Z,14.40
2023-03-26T14:35:09.554Z,13.70
2023-03-26T14:40:29.867Z,13.60
2023-03-26T14:46:05.957Z,13.00
2023-03-26T14:51:20.752Z,12.20
2023-03-26T14:56:55.045Z,11.70
2023-03-26T15:02:45.375Z,11.50
2023-03-26T15:08:33.722Z,11.00
2023-03-26T15:14:38.255Z,10.70
2023-03-26T15:20:14.549Z,10.50
2023-03-26T15:25:46.114Z,10.20
2023-03-26T15:31:22.810Z,9.70
2023-03-26T15:37:13.149Z,8.30
2023-03-26T15:42:30.312Z,7.70
2023-03-26T15:47:49.835Z,7.40
2023-03-26T15:53:03.471Z,7.30
2023-03-26T15:58:17.040Z,7.20
2023-03-26T16:03:31.627Z,7.40
2023-03-26T16:08:46.889Z,7.70
2023-03-26T16:14:13.305Z,7.80
2023-03-26T16:19:48.228Z,7.60
2023-03-26T16:25:27.860Z,8.10
2023-03-26T16:30:34.329Z,8.30
2023-03-26T16:36:04.760Z,8.20
2023-03-26T16:41:18.331Z,7.80
2023-03-26T16:46:33.204Z,7.70
2023-03-26T16:51:57.417Z,7.60
2023-03-26T16:57:11.425Z,7.40
2023-03-26T17:02:25.159Z,7.20
2023-03-26T17:07:34.554Z,6.90
2023-03-26T17:12:42.989Z,6.70
2023-03-26T17:18:00.306Z,6.70
2023-03-26T17:23:28.558Z,6.70
2023-03-26T17:29:03.512Z,6.60
2023-03-26T17:34:41.185Z,6.50
2023-03-26T17:40:20.899Z,6.60
2023-03-26T17:45:30.573Z,6.50
2023-03-26T17:50:44.298Z,6.40
2023-03-26T17:55:51.115Z,6.20
2023-03-26T18:01:04.293Z,6.00
2023-03-26T18:06:14.335Z,5.80
2023-03-26T18:11:41.664Z,5.60
2023-03-26T18:16:49.444Z,5.50
2023-03-26T18:21:56.810Z,5.30
2023-03-26T18:27:03.607Z,5.30
2023-03-26T18:32:22.282Z,5.30
2023-03-26T18:37:29.942Z,5.40
2023-03-26T18:42:34.988Z,5.50
2023-03-26T18:47:38.625Z,5.60
2023-03-26T18:52:43.472Z,5.50
2023-03-26T18:57:51.651Z,5.40
2023-03-26T19:03:04.631Z,5.40
2023-03-26T19:08:09.784Z,5.30
2023-03-26T19:13:16.197Z,5.30
2023-03-26T19:18:22.990Z,5.30
2023-03-26T19:23:32.371Z,5.30
2023-03-26T19:28:39.679Z,5.30
2023-03-26T19:33:45.044Z,5.40
2023-03-26T19:38:53.727Z,5.50
2023-03-26T19:44:03.592Z,5.50
2023-03-26T19:49:07.255Z,5.50
2023-03-26T19:54:17.059Z,5.50
2023-03-26T19:59:20.333Z,5.60
2023-03-26T20:04:23.993Z,5.50
2023-03-26T20:09:37.109Z,5.50
2023-03-26T20:14:45.606Z,5.50
2023-03-26T20:19:48.997Z,5.30
2023-03-26T20:24:54.835Z,5.00
2023-03-26T20:29:58.396Z,4.90
2023-03-26T20:35:02.262Z,4.80
2023-03-26T20:40:09.118Z,4.70
2023-03-26T20:45:21.253Z,4.70
2023-03-26T20:50:26.813Z,4.60
2023-03-26T20:55:31.604Z,4.70
2023-03-26T21:00:35.454Z,4.60
2023-03-26T21:05:40.062Z,4.60
2023-03-26T21:10:45.834Z,4.40
2023-03-26T21:15:49.751Z,4.50
2023-03-26T21:21:18.205Z,4.40
2023-03-26T21:26:34.167Z,4.40
2023-03-26T21:31:46.783Z,4.30
2023-03-26T21:36:50.812Z,4.30
2023-03-26T21:42:05.166Z,4.30
2023-03-26T21:47:10.689Z,4.50
2023-03-26T21:52:15.367Z,4.50
2023-03-26T21:57:37.257Z,4.50
2023-03-26T22:02:52.940Z,4.60
2023-03-26T22:07:58.763Z,4.70
2023-03-26T22:13:03.636Z,4.90
2023-03-26T22:18:07.428Z,5.00
2023-03-26T22:23:12.035Z,5.20
2023-03-26T22:28:17.100Z,5.20
2023-03-26T22:33:20.424Z,5.30
2023-03-26T22:38:23.891Z,5.20
2023-03-26T22:43:28.809Z,5.20
2023-03-26T22:48:36.602Z,5.20
2023-03-26T22:53:39.814Z,5.20
2023-03-26T22:58:44.401Z,5.20
2023-03-26T23:03:48.102Z,5.10
2023-03-26T23:08:51.485Z,5.20
2023-03-26T23:13:56.593Z,5.20
2023-03-26T23:18:59.932Z,5.20
2023-03-26T23:24:04.650Z,5.10
2023-03-26T23:29:09.571Z,5.10
2023-03-26T23:34:13.536Z,5.20
2023-03-26T23:39:17.086Z,5.10
2023-03-26T23:44:21.790Z,5.10
2023-03-26T23:49:26.143Z,5.20
2023-03-26T23:54:30.164Z,5.10
2023-03-26T23:59:35.626Z,5.10
